Cebollita Spring, Valles Caldera, New Mexico Weather observations

Data are for 10 minute period ending at time listed.
 Day   Time   Solar   Ave.   Ave.  Ave.  Vector  Max.   Baro.   Total    
  of    of     Rad.   Air    Rel.  Wind   Wind   Wind  Press.  Precip.   
Year   Day            Temp.  Hum.  Speed  Dir.   Gust                    
2014   (MST)  Kw/m2    F      %     mph   deg.    mph    mb.     in.     
-------------------------------------------------------------------------
 210   22:30   0.00   52.4    99    0.8   319     2.4   99999.0    0.00 
 210   22:40   0.00   52.0    99    2.6   334     4.2   99999.0    0.00 
 210   22:50   0.00   51.3    99    2.2    41     3.0   99999.0    0.00 
 210   23:00   0.00   50.6    99    1.8   330     4.2   99999.0    0.00 
 210   23:10   0.00   50.6    99    3.1   348     5.4   99999.0    0.00 
 210   23:20   0.00   50.3    99    2.8    10     5.4   99999.0    0.00 
 210   23:30   0.00   50.6    99    2.0    36     3.6   99999.0    0.00 
 210   23:40   0.00   50.7    99    1.0    42     3.0   99999.0    0.00 
 210   23:50   0.00   50.2    99    1.8    74     3.0   99999.0    0.00 
 211    0:00   0.00   49.9    99    0.8    43     2.4   99999.0    0.00 
 211    0:10   0.00   49.5    99    0.2   346     1.8   99999.0    0.00 
 211    0:20   0.00   49.5    99    1.9    66     3.6   99999.0    0.00 
 211    0:30   0.00   49.9    99    2.7   360     4.8   99999.0    0.00 
 211    0:40   0.00   50.6    99    2.6   357     4.8   99999.0    0.00 
 211    0:50   0.00   52.1    99    7.7   331    17.3   99999.0    0.01 
 211    1:00   0.00   50.1    98    7.6   355    19.7   99999.0    0.29 
 211    1:10   0.00   48.8    98    1.4   353     4.8   99999.0    0.11 
 211    1:20   0.00   48.9    98    3.2    98     4.8   99999.0    0.03 
 211    1:30   0.00   48.9    99    3.3     3     5.4   99999.0    0.00 
 211    1:40   0.00   48.7    99    3.3    16     6.0   99999.0    0.00 
 211    1:50   0.00   48.3    99    2.8   356     4.8   99999.0    0.00 
 211    2:00   0.00   48.4    99    1.9    36     3.6   99999.0    0.00 
 211    2:10   0.00   48.7    99    1.6   354     3.6   99999.0    0.00 
 211    2:20   0.00   49.1    99    1.8   348     3.6   99999.0    0.00 
 211    2:30   0.00   49.3    99    2.6   345     5.4   99999.0    0.00 
 211    2:40   0.00   49.5    99    1.7    69     3.6   99999.0    0.00 
 211    2:50   0.00   49.6    99    1.7     4     3.0   99999.0    0.00 
 211    3:00   0.00   49.8    99    1.2    26     5.4   99999.0    0.00 
 211    3:10   0.00   50.0    99    3.3    32     5.4   99999.0    0.00 
 211    3:20   0.00   50.0    99    4.0    32     6.0   99999.0    0.00 
 211    3:30   0.00   50.0    99    3.1    30     5.4   99999.0    0.00 
 211    3:40   0.00   49.7    99    2.3    51     4.8   99999.0    0.00 
 211    3:50   0.00   49.5    99    2.4    48     4.8   99999.0    0.00 
 211    4:00   0.00   49.4    99    2.4    32     3.6   99999.0    0.00 
 211    4:10   0.00   49.2    99    2.4    11     4.2   99999.0    0.00 
 211    4:20   0.00   49.0    99    3.4   352     6.0   99999.0    0.00 
 211    4:30   0.00   49.0    99    3.5   346     5.4   99999.0    0.00 
 211    4:40   0.00   49.0    99    4.0   336     6.0   99999.0    0.00 
 211    4:50   0.00   48.9    99    3.4   338     6.0   99999.0    0.00 
 211    5:00   0.00   48.8    99    3.6   340     6.6   99999.0    0.00 
 211    5:10   0.00   48.6    99    4.4   335     6.6   99999.0    0.00 
 211    5:20   0.01   48.5    99    4.7   336     7.8   99999.0    0.00 
 211    5:30   0.01   48.5    99    4.5   332     6.6   99999.0    0.00 
 211    5:40   0.01   48.4    99    4.2   330     6.0   99999.0    0.00 
 211    5:50   0.02   48.4    99    4.8   328     7.2   99999.0    0.00 
 211    6:00   0.11   48.7    99    6.0   332     8.4   99999.0    0.00 
 211    6:10   0.15   49.5    99    4.9   330     7.8   99999.0    0.00 
 211    6:20   0.17   50.0    99    5.0   331     7.8   99999.0    0.00 
 211    6:30   0.09   50.8    99    5.3   332     8.4   99999.0    0.00 
 211    6:40   0.21   51.9    98    5.4   337     8.4   99999.0    0.00 
 211    6:50   0.29   52.9    95    4.9   332     9.6   99999.0    0.00 
 211    7:00   0.33   54.2    90    5.2   334     7.8   99999.0    0.00 
 211    7:10   0.37   56.0    83    5.8   334     9.0   99999.0    0.00 
 211    7:20   0.42   57.4    79    5.3   320    10.2   99999.0    0.00 
 211    7:30   0.46   58.4    76    5.6   316    10.2   99999.0    0.00 
 211    7:40   0.50   59.7    72    5.8   317    10.8   99999.0    0.00 
 211    7:50   0.54   61.1    68    4.8   311    10.2   99999.0    0.00 
 211    8:00   0.57   62.3    66    4.7   316    10.8   99999.0    0.00 
 211    8:10   0.60   63.4    63    5.4   289     9.6   99999.0    0.00 
 211    8:20   0.65   64.3    59    4.8   288     9.6   99999.0    0.00 
 211    8:30   0.69   64.9    58    4.5   299     9.0   99999.0    0.00 
 211    8:40   0.72   65.7    56    5.2   307    10.2   99999.0    0.00 
 211    8:50   0.74   66.5    55    4.7   288     8.4   99999.0    0.00 
 211    9:00   0.77   67.4    53    4.5   278     9.0   99999.0    0.00 
 211    9:10   0.80   68.2    51    6.2   283    11.9   99999.0    0.00 
 211    9:20   0.84   68.6    50    6.2   287    11.9   99999.0    0.00 
 211    9:30   0.87   68.8    49    6.9   274    13.1   99999.0    0.00 
 211    9:40   0.90   69.3    48    7.3   284    12.5   99999.0    0.00 
 211    9:50   0.91   69.0    47    7.5   266    13.1   99999.0    0.00 
 211   10:00   0.94   70.1    46    5.4   286    10.8   99999.0    0.00 
 211   10:10   0.96   70.5    46    6.1   311    11.3   99999.0    0.00 
 211   10:20   0.99   70.9    45    5.0   285     9.6   99999.0    0.00 
 211   10:30   1.01   71.4    46    5.3   267    11.3   99999.0    0.00 
 211   10:40   1.03   71.3    44    4.0   310     8.4   99999.0    0.00 
 211   10:50   1.01   72.4    45    6.0   266    10.8   99999.0    0.00 
 211   11:00   0.97   72.4    42    6.3   261    12.5   99999.0    0.00 
 211   11:10   1.11   72.0    41    6.1   272    14.9   99999.0    0.00 
 211   11:20   1.11   72.8    42    6.0   285    10.8   99999.0    0.00 
 211   11:30   0.89   73.2    42    5.1   271    10.2   99999.0    0.00 
 211   11:40   1.15   72.6    43    6.2   259    12.5   99999.0    0.00 
 211   11:50   1.15   73.1    43    7.9   272    13.7   99999.0    0.00 
 211   12:00   1.02   74.0    42    6.2   283    14.3   99999.0    0.00 
 211   12:10   0.72   73.1    44    5.9   271    11.3   99999.0    0.00 
 211   12:20   0.48   71.9    45    6.1   310    15.5   99999.0    0.00 
 211   12:30   1.04   73.0    44    5.6   299    13.1   99999.0    0.00 
 211   12:40   1.12   74.2    41    6.5   285    12.5   99999.0    0.00 
 211   12:50   0.70   74.3    40    6.9   290    14.3   99999.0    0.00 
 211   13:00   0.22   71.6    44    8.1   278    13.1   99999.0    0.00 
 211   13:10   0.32   70.4    46    6.2   276    13.7   99999.0    0.00 
 211   13:20   0.53   72.1    45    5.4   279     9.6   99999.0    0.00 
 211   13:30   0.24   71.3    45    5.2   303    13.1   99999.0    0.00 
 211   13:40   0.21   70.2    48    4.5   293     9.0   99999.0    0.00 
 211   13:50   0.28   70.6    49    4.4   290    10.2   99999.0    0.00 
 211   14:00   0.24   70.4    47    5.8   291    10.2   99999.0    0.00 
 211   14:10   0.55   70.8    44    5.5   294    13.1   99999.0    0.00 
 211   14:20   0.74   73.2    41    5.4   274    11.9   99999.0    0.00 
 211   14:30   0.80   75.0    38    5.7   271    12.5   99999.0    0.00 
 211   14:40   0.41   73.8    41    5.2   264    10.2   99999.0    0.00 
 211   14:50   0.46   74.2    41    4.2   278     9.0   99999.0    0.00 
 211   15:00   0.38   73.2    40    5.1   276     9.6   99999.0    0.00 
 211   15:10   0.89   76.1    36    6.8   267    13.1   99999.0    0.00 
 211   15:20   0.60   76.0    33    8.2   250    15.5   99999.0    0.00 
 211   15:30   0.50   74.9    34    6.3   255    13.7   99999.0    0.00 
 211   15:40   0.82   76.6    33    6.1   262    13.7   99999.0    0.00 
 211   15:50   0.64   78.6    29    7.5   264    14.9   99999.0    0.00 
 211   16:00   0.30   74.8    32    6.6   278    13.1   99999.0    0.00 
 211   16:10   0.74   77.3    32    6.8   314    15.5   99999.0    0.00 
 211   16:20   0.17   75.7    30    6.1   271    12.5   99999.0    0.00 
 211   16:30   0.18   73.3    38    3.8   303     9.0   99999.0    0.00 
 211   16:40   0.19   73.1    34    4.5   283     9.9   99999.0    0.00 
 211   16:50   0.20   73.6    34    4.6   279     9.6   99999.0    0.00 
 211   17:00   0.15   73.0    34    5.1   289     9.0   99999.0    0.00 
 211   17:10   0.20   73.1    33    5.9   297    12.5   99999.0    0.00 
 211   17:20   0.13   72.8    34    6.6   280    14.9   99999.0    0.00 
 211   17:30   0.12   72.3    36    4.9   278     9.0   99999.0    0.00 
 211   17:40   0.15   72.1    36    4.8   275     9.0   99999.0    0.00 
 211   17:50   0.18   73.3    35    3.8   271     6.6   99999.0    0.00 
 211   18:00   0.15   73.0    36    3.6   278     6.6   99999.0    0.00 
 211   18:10   0.11   73.2    38    2.5   295     5.4   99999.0    0.00 
 211   18:20   0.08   71.5    45    0.8   302     3.0   99999.0    0.00 
 211   18:30   0.07   68.4    53    1.1    86     1.8   99999.0    0.00 
 211   18:40   0.03   66.4    63    0.0    64     1.2   99999.0    0.00 
 211   18:50   0.02   65.0    67    1.5   320     7.8   99999.0    0.00 
 211   19:00   0.03   64.2    68    3.0   323     6.6   99999.0    0.00 
 211   19:10   0.01   63.2    68    0.1    64     1.8   99999.0    0.00 
 211   19:20   0.00   62.7    68    3.3   130     7.2   99999.0    0.00 
 211   19:30   0.00   64.8    65    4.1   127    13.1   99999.0    0.00 
 211   19:40   0.00   65.0    68    5.1   130    10.8   99999.0    0.00 
 211   19:50   0.00   64.4    71    3.3   128     7.8   99999.0    0.00 
 211   20:00   0.00   63.8    73    4.2   120     9.0   99999.0    0.00 
 211   20:10   0.00   63.0    75    4.5   128    10.2   99999.0    0.00 
 211   20:20   0.00   62.2    76    3.7   135     8.4   99999.0    0.00 
 211   20:30   0.00   61.7    77    2.6   148     6.6   99999.0    0.00 
 211   20:40   0.00   61.1    77    5.0   135     8.4   99999.0    0.00 
 211   20:50   0.00   60.4    78    4.2   132     9.0   99999.0    0.00 
 211   21:00   0.00   59.7    79    2.9   137     9.0   99999.0    0.00 
 211   21:10   0.00   59.2    80    3.4   151     7.2   99999.0    0.00 
 211   21:20   0.00   58.7    81    2.0   134     4.2   99999.0    0.00 
 211   21:30   0.00   57.9    84    1.2   140     3.6   99999.0    0.00 
 211   21:40   0.00   57.0    86    0.1   110     1.8   99999.0    0.00 
 211   21:50   0.00   56.1    88    0.2   136     1.8   99999.0    0.00 
 211   22:00   0.00   55.3    90    0.1    71     1.2   99999.0    0.00 
 211   22:10   0.00   54.3    92    1.7    78     2.4   99999.0    0.00 
 211   22:20   0.00   53.4    94    0.9    71     2.4   99999.0    0.00 

Return to Cebollita Spring, Valles Caldera graphs page.


Western Regional Climate Center,wrcc@dri.edu